Time;durP1;ratioP1;P1;durP2;ratioP2;P2;SDS_P1;SDS_P2;PMS_P1;PMS_P2;Temp;Humidity;BMP_temperature;BMP_pressure;BME280_temperature;BME280_humidity;BME280_pressure;Samples;Min_cycle;Max_cycle;Signal;HPM_P1;HPM_P2
2022/12/23 00:02:00;;;;;;;;;;;;;;;12.96;100.00;99099.50;5086691;28;20340;-64
2022/12/23 00:04:25;;;;;;;;;;;;;;;12.96;100.00;99102.16;5108113;28;19942;-64
2022/12/23 00:06:50;;;;;;;;;;;;;;;12.99;100.00;99096.69;5086692;28;20001;-64
2022/12/23 00:09:15;;;;;;;;;;;;;;;13.02;100.00;99104.53;5073634;28;19948;-64
2022/12/23 00:15:04;;;;;;;;;;;;;;;13.03;100.00;99105.41;5075504;28;19974;-65
2022/12/23 00:17:10;;;;;;;;;;;;;;;13.08;100.00;99103.31;5080828;28;19988;-64
2022/12/23 00:19:36;;;;;;;;;;;;;;;13.12;100.00;99111.06;5073555;28;19943;-64
2022/12/23 00:22:01;;;;;;;;;;;;;;;13.13;100.00;99094.09;5072607;28;19976;-65
2022/12/23 00:24:26;;;;;;;;;;;;;;;13.20;100.00;99103.47;5076197;28;19932;-65
2022/12/23 00:26:51;;;;;;;;;;;;;;;13.23;100.00;99114.94;5088050;28;19930;-66
2022/12/23 00:29:16;;;;;;;;;;;;;;;13.25;100.00;99103.22;5091064;28;20455;-65
2022/12/23 00:31:42;;;;;;;;;;;;;;;13.27;100.00;99105.78;5074568;28;19954;-65
2022/12/23 00:34:08;;;;;;;;;;;;;;;13.29;100.00;99106.56;5085222;28;19941;-65
2022/12/23 00:36:33;;;;;;;;;;;;;;;13.15;100.00;99084.19;5083353;28;19961;-65
2022/12/23 00:44:27;;;;;;;;;;;;;;;13.44;100.00;99111.91;5091737;28;19939;-65
2022/12/23 00:46:52;;;;;;;;;;;;;;;13.42;100.00;99118.25;5089231;28;19934;-65
2022/12/23 00:52:03;;;;;;;;;;;;;;;13.48;100.00;99113.41;5081317;28;19934;-65
2022/12/23 00:54:30;;;;;;;;;;;;;;;13.54;100.00;99133.59;5073324;28;19985;-65
2022/12/23 00:56:56;;;;;;;;;;;;;;;13.57;100.00;99144.09;5070794;28;20279;-65
2022/12/23 00:59:21;;;;;;;;;;;;;;;13.57;100.00;99139.63;5071007;28;19969;-65
2022/12/23 01:07:14;;;;;;;;;;;;;;;13.69;100.00;99154.06;5085902;28;19931;-65
2022/12/23 01:09:39;;;;;;;;;;;;;;;13.72;100.00;99154.72;5081758;28;19925;-66
2022/12/23 01:12:05;;;;;;;;;;;;;;;13.69;100.00;99159.41;5085703;28;19994;-65
2022/12/23 01:14:30;;;;;;;;;;;;;;;13.73;100.00;99155.59;5080613;28;20042;-65
2022/12/23 01:16:55;;;;;;;;;;;;;;;13.70;100.00;99156.66;5070464;28;19940;-65
2022/12/23 01:19:21;;;;;;;;;;;;;;;13.71;100.00;99157.47;5081017;28;19948;-65
2022/12/23 01:21:46;;;;;;;;;;;;;;;13.72;100.00;99152.03;5073679;28;20324;-65
2022/12/23 01:24:11;;;;;;;;;;;;;;;13.71;100.00;99158.34;5080922;28;19928;-65
2022/12/23 01:26:36;;;;;;;;;;;;;;;13.72;100.00;99169.91;5081943;28;19955;-65
2022/12/23 01:29:02;;;;;;;;;;;;;;;13.73;100.00;99160.94;5071827;28;20305;-65
2022/12/23 01:31:27;;;;;;;;;;;;;;;13.77;100.00;99157.16;5072953;28;19983;-65
2022/12/23 01:33:53;;;;;;;;;;;;;;;13.80;100.00;99173.00;5090481;28;19966;-65
2022/12/23 01:36:19;;;;;;;;;;;;;;;13.83;100.00;99184.38;5089336;28;19916;-65
2022/12/23 01:38:44;;;;;;;;;;;;;;;13.88;100.00;99192.97;5076540;28;19942;-64
2022/12/23 01:42:42;;;;;;;;;;;;;;;13.89;100.00;99199.16;5073970;28;19927;-65
2022/12/23 01:44:22;;;;;;;;;;;;;;;13.91;100.00;99198.16;5085460;28;19961;-64
2022/12/23 01:46:47;;;;;;;;;;;;;;;13.90;100.00;99214.28;5070843;28;19935;-65
2022/12/23 01:49:13;;;;;;;;;;;;;;;13.91;100.00;99213.31;5081738;28;20310;-64
2022/12/23 01:51:38;;;;;;;;;;;;;;;13.93;100.00;99222.97;5091127;28;19950;-63
2022/12/23 01:54:04;;;;;;;;;;;;;;;13.94;100.00;99218.47;5091167;28;19928;-64
2022/12/23 01:56:35;;;;;;;;;;;;;;;13.93;100.00;99228.31;5091265;28;19931;-64
2022/12/23 01:59:00;;;;;;;;;;;;;;;13.91;100.00;99224.00;5091509;28;19927;-64
2022/12/23 02:04:12;;;;;;;;;;;;;;;13.93;100.00;99232.81;5084405;28;19949;-64
2022/12/23 02:09:33;;;;;;;;;;;;;;;13.97;100.00;99242.38;5074467;28;19953;-64
2022/12/23 02:12:10;;;;;;;;;;;;;;;13.96;100.00;99246.00;5075422;28;19968;-64
2022/12/23 02:17:39;;;;;;;;;;;;;;;13.89;100.00;99255.31;5091668;28;19979;-64
2022/12/23 02:20:22;;;;;;;;;;;;;;;13.88;100.00;99272.31;5085971;28;19938;-64
2022/12/23 02:23:06;;;;;;;;;;;;;;;13.87;100.00;99267.94;5071572;28;20389;-64
2022/12/23 02:25:37;;;;;;;;;;;;;;;13.92;100.00;99279.22;5073108;28;19939;-64
2022/12/23 02:28:20;;;;;;;;;;;;;;;13.91;100.00;99283.69;5071370;28;19929;-64
2022/12/23 02:30:47;;;;;;;;;;;;;;;13.93;100.00;99286.28;5073691;28;19933;-63
2022/12/23 02:33:13;;;;;;;;;;;;;;;13.92;100.00;99296.09;5073328;28;19942;-62
2022/12/23 02:36:10;;;;;;;;;;;;;;;13.92;100.00;99289.91;5071073;28;20284;-63
2022/12/23 02:38:58;;;;;;;;;;;;;;;13.92;100.00;99285.41;5066848;28;20490;-62
2022/12/23 02:41:48;;;;;;;;;;;;;;;13.92;100.00;99301.44;5071362;28;19974;-62
2022/12/23 02:44:24;;;;;;;;;;;;;;;13.95;100.00;99297.75;5071080;28;19930;-63
2022/12/23 02:46:55;;;;;;;;;;;;;;;13.90;100.00;99300.69;5071197;28;19936;-63
2022/12/23 02:49:28;;;;;;;;;;;;;;;13.88;100.00;99309.75;5073055;28;20007;-63
2022/12/23 02:51:55;;;;;;;;;;;;;;;13.83;100.00;99306.47;5071064;28;20061;-62
2022/12/23 02:54:27;;;;;;;;;;;;;;;13.79;100.00;99300.44;5073206;28;19936;-62
2022/12/23 02:56:53;;;;;;;;;;;;;;;13.80;100.00;99312.88;5070976;28;19919;-62
2022/12/23 02:59:29;;;;;;;;;;;;;;;13.78;100.00;99324.56;5070806;28;19929;-63
2022/12/23 03:01:55;;;;;;;;;;;;;;;13.79;100.00;99339.69;5073153;28;19940;-63
2022/12/23 03:04:21;;;;;;;;;;;;;;;13.80;100.00;99336.91;5097783;28;19943;-63
2022/12/23 03:06:51;;;;;;;;;;;;;;;13.81;100.00;99341.31;5111694;28;19936;-63
2022/12/23 03:09:26;;;;;;;;;;;;;;;13.85;100.00;99337.53;5076445;28;20009;-63
2022/12/23 03:11:54;;;;;;;;;;;;;;;13.86;100.00;99339.25;5073012;28;19932;-63
2022/12/23 03:14:31;;;;;;;;;;;;;;;13.86;100.00;99349.06;5084663;28;20006;-62
2022/12/23 03:16:56;;;;;;;;;;;;;;;13.90;100.00;99347.94;5092739;28;20105;-62
2022/12/23 03:19:31;;;;;;;;;;;;;;;13.92;100.00;99343.38;5093728;28;19929;-62
2022/12/23 03:22:05;;;;;;;;;;;;;;;13.94;100.00;99338.78;5092996;28;20011;-62
2022/12/23 03:24:39;;;;;;;;;;;;;;;13.95;100.00;99349.41;5094191;28;19933;-62
2022/12/23 03:27:11;;;;;;;;;;;;;;;13.99;100.00;99347.41;5079860;28;20036;-62
2022/12/23 03:29:40;;;;;;;;;;;;;;;13.96;100.00;99344.91;5085206;28;20012;-62
2022/12/23 03:32:05;;;;;;;;;;;;;;;13.98;100.00;99343.03;5080255;28;19942;-62
2022/12/23 03:34:34;;;;;;;;;;;;;;;13.99;100.00;99344.75;5070297;28;20283;-62
2022/12/23 03:37:02;;;;;;;;;;;;;;;13.93;100.00;99337.94;5068151;28;20032;-62
2022/12/23 03:39:31;;;;;;;;;;;;;;;13.98;100.00;99351.91;5085233;28;19970;-62
2022/12/23 03:42:00;;;;;;;;;;;;;;;14.01;100.00;99358.88;5089287;28;19940;-62
2022/12/23 03:44:30;;;;;;;;;;;;;;;14.01;100.00;99356.22;5074610;28;19995;-62
2022/12/23 03:46:56;;;;;;;;;;;;;;;14.01;100.00;99342.84;5083054;28;19936;-62
2022/12/23 03:49:30;;;;;;;;;;;;;;;14.01;100.00;99359.75;5092394;28;20000;-62
2022/12/23 03:51:59;;;;;;;;;;;;;;;14.00;100.00;99362.53;5087591;28;19979;-62
2022/12/23 03:54:30;;;;;;;;;;;;;;;13.98;100.00;99356.41;5072258;28;19934;-63
2022/12/23 03:57:00;;;;;;;;;;;;;;;13.98;100.00;99356.41;5072317;28;19935;-62
2022/12/23 03:59:27;;;;;;;;;;;;;;;14.01;100.00;99365.09;5074424;28;20315;-62
2022/12/23 04:01:58;;;;;;;;;;;;;;;14.02;100.00;99349.94;5071783;28;19945;-62
2022/12/23 04:04:31;;;;;;;;;;;;;;;14.03;100.00;99357.00;5079748;28;19954;-62
2022/12/23 04:07:03;;;;;;;;;;;;;;;14.04;100.00;99356.03;5072081;28;19934;-62
2022/12/23 04:09:29;;;;;;;;;;;;;;;14.00;100.00;99373.22;5079014;28;19947;-62
2022/12/23 04:11:55;;;;;;;;;;;;;;;14.00;100.00;99378.56;5091364;28;19935;-62
2022/12/23 04:14:21;;;;;;;;;;;;;;;13.99;100.00;99376.81;5083866;28;19927;-62
2022/12/23 04:16:48;;;;;;;;;;;;;;;13.98;100.00;99375.09;5075102;28;19927;-62
2022/12/23 04:19:14;;;;;;;;;;;;;;;13.94;100.00;99378.91;5073183;28;19930;-62
2022/12/23 04:21:39;;;;;;;;;;;;;;;13.95;100.00;99385.97;5073328;28;20458;-62
2022/12/23 04:24:04;;;;;;;;;;;;;;;13.95;100.00;99381.47;5071559;28;19949;-62
2022/12/23 04:26:29;;;;;;;;;;;;;;;13.95;100.00;99377.97;5071320;28;19947;-62
2022/12/23 04:28:55;;;;;;;;;;;;;;;13.98;100.00;99380.47;5090479;28;19956;-62
2022/12/23 04:31:20;;;;;;;;;;;;;;;13.99;100.00;99376.81;5091735;28;19958;-62
2022/12/23 04:33:45;;;;;;;;;;;;;;;14.05;100.00;99371.16;5082378;28;20391;-62
2022/12/23 04:36:10;;;;;;;;;;;;;;;14.05;100.00;99372.00;5074096;28;19931;-62
2022/12/23 04:38:36;;;;;;;;;;;;;;;14.06;100.00;99378.22;5073490;28;19937;-62
2022/12/23 04:41:01;;;;;;;;;;;;;;;14.03;100.00;99381.94;5071359;28;20501;-62
2022/12/23 04:43:26;;;;;;;;;;;;;;;14.07;100.00;99385.28;5073451;28;19935;-62
2022/12/23 04:45:51;;;;;;;;;;;;;;;14.06;100.00;99386.22;5071104;28;20078;-62
2022/12/23 04:48:17;;;;;;;;;;;;;;;14.03;100.00;99378.38;5071256;28;19988;-62
2022/12/23 04:50:42;;;;;;;;;;;;;;;14.04;100.00;99361.38;5073010;28;20336;-62
2022/12/23 04:53:08;;;;;;;;;;;;;;;14.09;100.00;99372.69;5070970;28;19932;-62
2022/12/23 04:55:33;;;;;;;;;;;;;;;14.10;100.00;99377.94;5073094;28;19931;-62
2022/12/23 04:57:58;;;;;;;;;;;;;;;14.15;100.00;99383.06;5070696;28;20361;-62
2022/12/23 05:00:23;;;;;;;;;;;;;;;14.13;100.00;99369.78;5071790;28;19986;-62
2022/12/23 05:02:49;;;;;;;;;;;;;;;14.12;100.00;99361.81;5074287;28;19936;-62
2022/12/23 05:05:14;;;;;;;;;;;;;;;14.13;100.00;99355.53;5111417;28;19943;-62
2022/12/23 05:07:39;;;;;;;;;;;;;;;14.14;100.00;99355.44;5087118;28;19953;-62
2022/12/23 05:10:05;;;;;;;;;;;;;;;14.14;100.00;99365.25;5079851;28;19956;-62
2022/12/23 05:12:30;;;;;;;;;;;;;;;14.18;100.00;99373.00;5090665;28;20435;-62
2022/12/23 05:14:55;;;;;;;;;;;;;;;14.20;100.00;99362.25;5086723;28;19980;-62
2022/12/23 05:17:21;;;;;;;;;;;;;;;14.21;100.00;99363.97;5070483;28;19935;-62
2022/12/23 05:19:46;;;;;;;;;;;;;;;14.21;100.00;99363.97;5070607;28;19938;-62
2022/12/23 05:22:11;;;;;;;;;;;;;;;14.19;100.00;99368.53;5084636;28;19929;-62
2022/12/23 05:24:37;;;;;;;;;;;;;;;14.18;100.00;99369.50;5084050;28;20408;-62
2022/12/23 05:27:02;;;;;;;;;;;;;;;14.15;100.00;99377.69;5072613;28;20008;-62
2022/12/23 05:29:27;;;;;;;;;;;;;;;14.13;100.00;99384.94;5070170;28;19961;-62
2022/12/23 05:31:53;;;;;;;;;;;;;;;14.10;100.00;99380.63;5070269;28;19975;-62
2022/12/23 05:34:18;;;;;;;;;;;;;;;14.08;100.00;99392.38;5072518;28;19945;-62
2022/12/23 05:36:43;;;;;;;;;;;;;;;14.10;100.00;99382.44;5070233;28;19928;-62
2022/12/23 05:39:08;;;;;;;;;;;;;;;14.11;100.00;99386.84;5070092;28;19930;-62
2022/12/23 05:41:34;;;;;;;;;;;;;;;14.15;100.00;99388.41;5072483;28;19932;-62
2022/12/23 05:43:59;;;;;;;;;;;;;;;14.21;100.00;99388.03;5090410;28;19977;-62
2022/12/23 05:46:24;;;;;;;;;;;;;;;14.23;100.00;99386.16;5088277;28;20333;-62
2022/12/23 05:48:49;;;;;;;;;;;;;;;14.18;100.00;99382.88;5071224;28;19977;-62
2022/12/23 05:51:15;;;;;;;;;;;;;;;14.16;100.00;99393.66;5072145;28;19935;-62
2022/12/23 05:53:40;;;;;;;;;;;;;;;14.15;100.00;99407.97;5070256;28;20761;-61
2022/12/23 05:56:05;;;;;;;;;;;;;;;14.16;100.00;99399.00;5069728;28;20016;-62
2022/12/23 05:58:31;;;;;;;;;;;;;;;14.18;100.00;99404.28;5068484;28;20419;-62
2022/12/23 06:00:56;;;;;;;;;;;;;;;14.17;100.00;99405.19;5081204;28;19980;-62
2022/12/23 06:03:21;;;;;;;;;;;;;;;14.19;100.00;99405.97;5079241;28;20379;-62
2022/12/23 06:05:50;;;;;;;;;;;;;;;14.14;100.00;99402.69;5109287;28;20682;-62
2022/12/23 06:08:16;;;;;;;;;;;;;;;14.12;100.00;99393.91;5086417;28;19971;-61
2022/12/23 06:10:41;;;;;;;;;;;;;;;14.09;100.00;99394.06;5088948;28;19956;-62
2022/12/23 06:13:06;;;;;;;;;;;;;;;14.03;100.00;99386.41;5082837;28;19938;-62
2022/12/23 06:15:31;;;;;;;;;;;;;;;13.99;100.00;99382.16;5069608;28;19930;-62
2022/12/23 06:17:57;;;;;;;;;;;;;;;14.00;100.00;99381.25;5089330;28;19936;-62
2022/12/23 06:20:22;;;;;;;;;;;;;;;13.99;100.00;99388.38;5086063;28;19992;-62
2022/12/23 06:22:47;;;;;;;;;;;;;;;13.98;100.00;99380.47;5089648;28;19938;-62
2022/12/23 06:25:12;;;;;;;;;;;;;;;13.99;100.00;99387.53;5082370;28;19934;-62
2022/12/23 06:27:38;;;;;;;;;;;;;;;13.99;100.00;99379.50;5069395;28;19998;-62
2022/12/23 06:30:03;;;;;;;;;;;;;;;14.01;100.00;99385.63;5069545;28;20399;-62
2022/12/23 06:32:31;;;;;;;;;;;;;;;14.02;100.00;99379.34;5085264;28;20014;-62
2022/12/23 06:34:56;;;;;;;;;;;;;;;14.02;100.00;99387.38;5089573;28;19960;-63
2022/12/23 06:37:22;;;;;;;;;;;;;;;14.00;100.00;99394.63;5081997;28;20316;-62
2022/12/23 06:39:47;;;;;;;;;;;;;;;14.00;100.00;99405.31;5071360;28;19942;-62
2022/12/23 06:42:12;;;;;;;;;;;;;;;14.00;100.00;99405.31;5074892;28;19939;-62
2022/12/23 06:44:38;;;;;;;;;;;;;;;14.02;100.00;99408.75;5086545;28;20343;-62
2022/12/23 06:47:03;;;;;;;;;;;;;;;14.03;100.00;99406.00;5077237;28;20384;-62
2022/12/23 06:49:28;;;;;;;;;;;;;;;14.03;100.00;99421.19;5070716;28;19949;-62
2022/12/23 06:51:53;;;;;;;;;;;;;;;14.05;100.00;99419.28;5073707;28;20399;-62
2022/12/23 06:54:19;;;;;;;;;;;;;;;14.02;100.00;99424.81;5087473;28;19985;-62
2022/12/23 06:56:44;;;;;;;;;;;;;;;14.01;100.00;99418.59;5093383;28;19981;-62
2022/12/23 06:59:09;;;;;;;;;;;;;;;14.02;100.00;99417.63;5086614;28;19945;-62
2022/12/23 07:01:34;;;;;;;;;;;;;;;13.99;100.00;99420.47;5073185;28;19946;-62
2022/12/23 07:04:00;;;;;;;;;;;;;;;14.00;100.00;99422.19;5090179;28;20410;-62
2022/12/23 07:06:26;;;;;;;;;;;;;;;14.00;100.00;99416.00;5093535;28;19932;-62
2022/12/23 07:08:51;;;;;;;;;;;;;;;14.00;100.00;99424.88;5082474;28;19955;-62
2022/12/23 07:11:17;;;;;;;;;;;;;;;14.04;100.00;99430.91;5073129;28;20038;-62
2022/12/23 07:13:42;;;;;;;;;;;;;;;14.08;100.00;99429.81;5087430;28;20450;-62
2022/12/23 07:16:08;;;;;;;;;;;;;;;14.10;100.00;99444.81;5091579;28;20033;-63
2022/12/23 07:18:33;;;;;;;;;;;;;;;14.09;100.00;99431.50;5092894;28;20448;-62
2022/12/23 07:20:59;;;;;;;;;;;;;;;14.12;100.00;99439.38;5079219;28;19941;-62
2022/12/23 07:23:25;;;;;;;;;;;;;;;14.12;100.00;99442.03;5072663;28;20468;-61
2022/12/23 07:25:50;;;;;;;;;;;;;;;14.11;100.00;99443.88;5074789;28;19927;-62
2022/12/23 07:28:15;;;;;;;;;;;;;;;14.11;100.00;99445.69;5072989;28;19980;-63
2022/12/23 07:30:41;;;;;;;;;;;;;;;14.06;100.00;99450.41;5085875;28;20115;-61
2022/12/23 07:33:06;;;;;;;;;;;;;;;14.02;100.00;99456.91;5074768;28;19982;-63
2022/12/23 07:35:31;;;;;;;;;;;;;;;14.04;100.00;99444.28;5078407;28;19986;-62
2022/12/23 07:37:57;;;;;;;;;;;;;;;14.04;100.00;99449.63;5091603;28;19936;-62
2022/12/23 07:40:23;;;;;;;;;;;;;;;14.06;100.00;99447.75;5091892;28;20081;-63
2022/12/23 07:42:48;;;;;;;;;;;;;;;14.04;100.00;99445.16;5090959;28;20388;-63
2022/12/23 07:45:14;;;;;;;;;;;;;;;14.07;100.00;99453.00;5078721;28;19934;-61
2022/12/23 07:47:40;;;;;;;;;;;;;;;14.07;100.00;99453.00;5069763;28;19962;-62
2022/12/23 07:50:06;;;;;;;;;;;;;;;14.09;100.00;99451.09;5074681;28;20437;-61
2022/12/23 07:52:31;;;;;;;;;;;;;;;14.07;100.00;99455.69;5090819;28;20022;-61
2022/12/23 07:54:56;;;;;;;;;;;;;;;14.12;100.00;99452.72;5090963;28;20375;-60
2022/12/23 07:57:23;;;;;;;;;;;;;;;14.15;100.00;99457.94;5085437;28;19957;-61
2022/12/23 07:59:48;;;;;;;;;;;;;;;14.15;100.00;99453.44;5071941;28;19938;-61
2022/12/23 08:02:13;;;;;;;;;;;;;;;14.11;100.00;99449.22;5069885;28;19985;-61
2022/12/23 08:04:38;;;;;;;;;;;;;;;14.12;100.00;99455.41;5073246;28;20336;-61
2022/12/23 08:07:04;;;;;;;;;;;;;;;14.16;100.00;99454.31;5071462;28;19959;-61
2022/12/23 08:09:29;;;;;;;;;;;;;;;14.13;100.00;99459.84;5071776;28;19952;-64
2022/12/23 08:11:54;;;;;;;;;;;;;;;14.10;100.00;99451.97;5078267;28;20505;-61
2022/12/23 08:14:19;;;;;;;;;;;;;;;14.13;100.00;99444.66;5091343;28;19926;-61
2022/12/23 08:16:46;;;;;;;;;;;;;;;14.16;100.00;99455.19;5091443;28;19957;-61
2022/12/23 08:19:11;;;;;;;;;;;;;;;14.14;100.00;99453.53;5091960;28;20608;-60
2022/12/23 08:21:37;;;;;;;;;;;;;;;14.13;100.00;99443.78;5085439;28;19951;-60
2022/12/23 08:24:02;;;;;;;;;;;;;;;14.16;100.00;99438.25;5078810;28;19938;-61
2022/12/23 08:26:27;;;;;;;;;;;;;;;14.15;100.00;99432.03;5083558;28;19944;-63
2022/12/23 08:28:52;;;;;;;;;;;;;;;14.18;100.00;99423.84;5080227;28;20493;-63
2022/12/23 08:31:20;;;;;;;;;;;;;;;14.22;100.00;99428.06;5073286;28;19935;-63
2022/12/23 08:33:47;;;;;;;;;;;;;;;14.20;100.00;99429.97;5082550;28;19937;-63
2022/12/23 08:36:14;;;;;;;;;;;;;;;14.21;100.00;99436.19;5073622;28;19956;-63
2022/12/23 08:38:39;;;;;;;;;;;;;;;14.23;100.00;99445.00;5086749;28;20699;-63
2022/12/23 08:41:09;;;;;;;;;;;;;;;14.24;100.00;99452.94;5072190;28;20033;-62
2022/12/23 08:43:34;;;;;;;;;;;;;;;14.28;100.00;99454.50;5078573;28;19929;-62
2022/12/23 08:45:59;;;;;;;;;;;;;;;14.28;100.00;99454.50;5072957;28;19940;-62
2022/12/23 08:48:24;;;;;;;;;;;;;;;14.28;100.00;99445.63;5070990;28;19959;-62
2022/12/23 08:50:50;;;;;;;;;;;;;;;14.27;100.00;99455.47;5079246;28;19981;-63
2022/12/23 08:53:15;;;;;;;;;;;;;;;14.22;100.00;99451.28;5079477;28;20003;-63
2022/12/23 08:55:45;;;;;;;;;;;;;;;14.30;100.00;99446.38;5090433;28;20008;-63
2022/12/23 08:58:11;;;;;;;;;;;;;;;14.31;100.00;99443.66;5084043;28;19964;-63
2022/12/23 09:00:36;;;;;;;;;;;;;;;14.32;100.00;99442.69;5073138;28;20293;-63
2022/12/23 09:03:02;;;;;;;;;;;;;;;14.35;100.00;99437.16;5081011;28;19956;-62
2022/12/23 09:05:27;;;;;;;;;;;;;;;14.39;100.00;99419.13;5090741;28;19958;-63
2022/12/23 09:07:52;;;;;;;;;;;;;;;14.38;100.00;99412.06;5083083;28;20341;-64
2022/12/23 09:10:18;;;;;;;;;;;;;;;14.42;100.00;99416.25;5082477;28;19954;-64
2022/12/23 09:12:44;;;;;;;;;;;;;;;14.46;100.00;99394.59;5079262;28;20436;-63
2022/12/23 09:15:09;;;;;;;;;;;;;;;14.51;100.00;99405.03;5086175;28;20285;-64
2022/12/23 09:17:34;;;;;;;;;;;;;;;14.49;100.00;99398.91;5076709;28;19940;-64
2022/12/23 09:20:00;;;;;;;;;;;;;;;14.49;100.00;99393.56;5075965;28;19959;-64
2022/12/23 09:22:25;;;;;;;;;;;;;;;14.50;100.00;99395.28;5072598;28;19991;-64
2022/12/23 09:24:50;;;;;;;;;;;;;;;14.45;100.00;99392.00;5085555;28;19936;-63
2022/12/23 09:27:16;;;;;;;;;;;;;;;14.43;100.00;99397.44;5075921;28;20626;-63
2022/12/23 09:29:41;;;;;;;;;;;;;;;14.42;100.00;99408.22;5080506;28;19953;-62
2022/12/23 09:32:06;;;;;;;;;;;;;;;14.43;100.00;99404.63;5090233;28;19934;-62
2022/12/23 09:34:31;;;;;;;;;;;;;;;14.40;100.00;99405.66;5077471;28;19944;-63
2022/12/23 09:36:57;;;;;;;;;;;;;;;14.39;100.00;99400.41;5090250;28;19943;-62
2022/12/23 09:39:23;;;;;;;;;;;;;;;14.41;100.00;99395.81;5084341;28;19948;-62
2022/12/23 09:42:00;;;;;;;;;;;;;;;14.44;100.00;99398.31;5073907;28;19943;-63
2022/12/23 09:44:25;;;;;;;;;;;;;;;14.49;100.00;99398.91;5090552;28;19938;-63
2022/12/23 09:46:52;;;;;;;;;;;;;;;14.48;100.00;99392.69;5071344;28;19941;-63
2022/12/23 09:49:21;;;;;;;;;;;;;;;14.49;100.00;99382.84;5069086;28;20267;-63
2022/12/23 09:51:47;;;;;;;;;;;;;;;14.49;100.00;99388.22;5079938;28;19986;-64
2022/12/23 09:54:16;;;;;;;;;;;;;;;14.46;100.00;99383.03;5079994;28;19968;-64
2022/12/23 09:56:50;;;;;;;;;;;;;;;14.51;100.00;99378.28;5090031;28;19924;-64
2022/12/23 09:59:23;;;;;;;;;;;;;;;14.49;100.00;99377.50;5082291;28;19938;-64
2022/12/23 10:02:05;;;;;;;;;;;;;;;14.50;100.00;99380.09;5069895;28;19940;-63
2022/12/23 10:04:49;;;;;;;;;;;;;;;14.57;100.00;99385.94;5097996;28;20006;-63
2022/12/23 10:07:24;;;;;;;;;;;;;;;14.58;100.00;99381.47;5097840;28;19936;-64
2022/12/23 10:09:52;;;;;;;;;;;;;;;14.60;100.00;99380.41;5071248;28;20420;-63
2022/12/23 10:12:22;;;;;;;;;;;;;;;14.63;100.00;99374.84;5075036;28;19983;-64
2022/12/23 10:14:50;;;;;;;;;;;;;;;14.69;100.00;99377.19;5079074;28;20613;-64
2022/12/23 10:17:20;;;;;;;;;;;;;;;14.71;100.00;99366.41;5074874;28;20480;-64
2022/12/23 10:19:47;;;;;;;;;;;;;;;14.73;100.00;99348.44;5080975;28;20059;-64
2022/12/23 10:22:18;;;;;;;;;;;;;;;14.73;100.00;99346.59;5073507;28;19933;-64
2022/12/23 10:24:44;;;;;;;;;;;;;;;14.72;100.00;99344.00;5068856;28;19926;-63
2022/12/23 10:27:25;;;;;;;;;;;;;;;14.73;100.00;99354.63;5071780;28;20507;-63
2022/12/23 10:29:50;;;;;;;;;;;;;;;14.77;100.00;99356.19;5070168;28;19955;-63
2022/12/23 10:32:15;;;;;;;;;;;;;;;14.80;100.00;99356.00;5068755;28;20016;-62
2022/12/23 10:35:01;;;;;;;;;;;;;;;14.77;100.00;99348.16;5072623;28;19929;-62
2022/12/23 10:37:35;;;;;;;;;;;;;;;14.81;100.00;99344.31;5068702;28;20396;-63
2022/12/23 10:40:22;;;;;;;;;;;;;;;14.76;100.00;99343.72;5073222;28;20030;-64
2022/12/23 10:42:58;;;;;;;;;;;;;;;14.86;100.00;99331.50;5080636;28;20011;-63
2022/12/23 10:45:23;;;;;;;;;;;;;;;14.85;100.00;99332.47;5086686;28;19936;-62
2022/12/23 10:48:07;;;;;;;;;;;;;;;14.91;100.00;99340.13;5086791;28;20045;-62
2022/12/23 10:50:45;;;;;;;;;;;;;;;14.88;100.00;99316.22;5080103;28;20425;-62
2022/12/23 10:53:13;;;;;;;;;;;;;;;14.88;100.00;99321.56;5069933;28;19937;-62
2022/12/23 10:55:38;;;;;;;;;;;;;;;14.94;100.00;99315.00;5071326;28;19977;-62
2022/12/23 10:58:07;;;;;;;;;;;;;;;14.94;100.00;99320.34;5091534;28;19967;-62
2022/12/23 11:00:34;;;;;;;;;;;;;;;14.95;100.00;99312.22;5091182;28;19936;-63
2022/12/23 11:03:22;;;;;;;;;;;;;;;14.92;100.00;99307.06;5082906;28;19990;-63
2022/12/23 11:05:49;;;;;;;;;;;;;;;14.95;100.00;99309.53;5091086;28;19979;-63
2022/12/23 11:08:14;;;;;;;;;;;;;;;14.91;100.00;99299.97;5089712;28;20443;-62
2022/12/23 11:10:39;;;;;;;;;;;;;;;14.91;100.00;99299.13;5072940;28;19950;-63
2022/12/23 11:13:05;;;;;;;;;;;;;;;14.92;100.00;99288.31;5083211;28;19975;-63
2022/12/23 11:15:33;;;;;;;;;;;;;;;14.95;100.00;99280.09;5091066;28;20404;-63
2022/12/23 11:18:10;;;;;;;;;;;;;;;14.93;100.00;99271.28;5088736;28;19986;-63
2022/12/23 11:20:36;;;;;;;;;;;;;;;14.93;100.00;99263.25;5080406;28;20422;-63
2022/12/23 11:23:02;;;;;;;;;;;;;;;14.96;100.00;99255.00;5070741;28;19932;-63
2022/12/23 11:25:29;;;;;;;;;;;;;;;15.01;100.00;99250.22;5072827;28;19940;-60
2022/12/23 11:28:01;;;;;;;;;;;;;;;14.97;100.00;99253.22;5071057;28;19948;-62
2022/12/23 11:30:27;;;;;;;;;;;;;;;14.95;100.00;99253.31;5079291;28;19950;-62
2022/12/23 11:32:52;;;;;;;;;;;;;;;14.91;100.00;99249.09;5070604;28;19977;-62
2022/12/23 11:35:28;;;;;;;;;;;;;;;14.93;100.00;99255.22;5071647;28;20477;-63
2022/12/23 11:37:54;;;;;;;;;;;;;;;14.98;100.00;99247.75;5093357;28;19958;-63
2022/12/23 11:40:22;;;;;;;;;;;;;;;14.96;100.00;99241.63;5094140;28;20392;-62
2022/12/23 11:42:47;;;;;;;;;;;;;;;14.98;100.00;99241.53;5082506;28;20371;-62
2022/12/23 11:45:20;;;;;;;;;;;;;;;15.02;100.00;99237.72;5074050;28;19937;-63
2022/12/23 11:47:46;;;;;;;;;;;;;;;15.05;100.00;99238.38;5076276;28;19957;-62
2022/12/23 11:50:31;;;;;;;;;;;;;;;15.03;100.00;99224.22;5075950;28;19951;-63
2022/12/23 11:53:02;;;;;;;;;;;;;;;15.06;100.00;99221.34;5073478;28;19933;-62
2022/12/23 11:55:31;;;;;;;;;;;;;;;15.09;100.00;99213.09;5074358;28;20292;-62
2022/12/23 11:57:57;;;;;;;;;;;;;;;15.07;100.00;99215.06;5075237;28;19942;-62
2022/12/23 12:00:46;;;;;;;;;;;;;;;15.06;100.00;99209.75;5082047;28;19930;-62
2022/12/23 12:03:16;;;;;;;;;;;;;;;15.10;100.00;99203.25;5080138;28;19925;-63
2022/12/23 12:05:47;;;;;;;;;;;;;;;15.16;100.00;99202.88;5113392;28;19942;-63
2022/12/23 12:08:19;;;;;;;;;;;;;;;15.17;100.00;99200.09;5113778;28;20743;-63
2022/12/23 12:10:44;;;;;;;;;;;;;;;15.13;100.00;99190.53;5102906;28;20343;-63
2022/12/23 12:13:18;;;;;;;;;;;;;;;15.18;100.00;99191.09;5093719;28;19990;-63
2022/12/23 12:15:49;;;;;;;;;;;;;;;15.00;100.00;99160.16;5093635;28;19939;-63
2022/12/23 12:18:16;;;;;;;;;;;;;;;15.18;100.00;99176.84;5093777;28;19980;-62
2022/12/23 12:20:44;;;;;;;;;;;;;;;15.19;100.00;99168.69;5093538;28;20012;-63
2022/12/23 12:23:36;;;;;;;;;;;;;;;15.20;100.00;99170.44;5093627;28;20381;-63
2022/12/23 12:26:04;;;;;;;;;;;;;;;15.20;100.00;99162.41;5091258;28;19939;-64
2022/12/23 12:28:30;;;;;;;;;;;;;;;15.23;100.00;99151.47;5090261;28;19986;-64
2022/12/23 12:31:02;;;;;;;;;;;;;;;15.24;100.00;99153.19;5093208;28;19987;-65
2022/12/23 12:33:30;;;;;;;;;;;;;;;15.26;100.00;99148.59;5091995;28;20025;-62
2022/12/23 12:36:18;;;;;;;;;;;;;;;15.26;100.00;99145.91;5093308;28;20441;-63
2022/12/23 12:38:46;;;;;;;;;;;;;;;15.20;100.00;99140.97;5093284;28;19945;-62
2022/12/23 12:41:11;;;;;;;;;;;;;;;15.22;100.00;99138.19;5085803;28;19943;-63
2022/12/23 12:43:39;;;;;;;;;;;;;;;15.22;100.00;99128.31;5090431;28;20280;-64
2022/12/23 12:46:20;;;;;;;;;;;;;;;15.26;100.00;99121.81;5084710;28;19940;-63
2022/12/23 12:48:45;;;;;;;;;;;;;;;15.26;100.00;99108.41;5072056;28;20000;-62
2022/12/23 12:51:32;;;;;;;;;;;;;;;15.33;100.00;99104.38;5072543;28;19986;-63
2022/12/23 12:54:17;;;;;;;;;;;;;;;15.24;100.00;99115.69;5073720;28;20415;-62
2022/12/23 12:56:45;;;;;;;;;;;;;;;15.26;100.00;99113.78;5072682;28;19930;-63
2022/12/23 12:59:14;;;;;;;;;;;;;;;15.26;100.00;99128.97;5074961;28;19988;-62
2022/12/23 13:01:42;;;;;;;;;;;;;;;15.29;100.00;99118.91;5072601;28;19963;-62
2022/12/23 13:04:07;;;;;;;;;;;;;;;15.33;100.00;99120.44;5081114;28;20032;-62
2022/12/23 13:06:50;;;;;;;;;;;;;;;15.34;100.00;99119.47;5079381;28;20037;-62